Steedman, Missouri
Current Conditions -  °F | °C
As of 6:53 AM on Monday 22 Dec 2014 (Local Time) from KJEF Reporting Station
Light Rain Light Rain  
Wind Chill: 38°   Ceiling: 1200
Heat Index: 41°   Visibility: 5mi
Dew Point: 39°   Wind: 5mph
Humidity: 93%   Direction: 90°E
Pressure: 29.71"   Gusts: NA
Location:  38.7°N, 91.82°W
Report Text: KJEF 221253Z 09004KT 5SM -RA BR OVC012 05/04 A2971 RMK AO2 RAB32 SLP052 P0001 T00500039
Loading
Personal Weather Stations






























Interactive Weather Map New forecast layout! Learn more

10-Day Weather Forecast

Advertisements
Track Severe Weather on mobile